sensor_id;sensor_type;location;lat;lon;timestamp;temperature;humidity
51476;DHT22;37554;50.362;7.568;2022-07-03T00:00:22;24.40;49.70
51476;DHT22;37554;50.362;7.568;2022-07-03T00:02:48;24.40;49.70
51476;DHT22;37554;50.362;7.568;2022-07-03T00:05:14;24.30;50.30
51476;DHT22;37554;50.362;7.568;2022-07-03T00:07:40;24.30;49.70
51476;DHT22;37554;50.362;7.568;2022-07-03T00:10:06;24.30;49.80
51476;DHT22;37554;50.362;7.568;2022-07-03T00:12:32;24.30;49.80
51476;DHT22;37554;50.362;7.568;2022-07-03T00:14:58;24.30;49.90
51476;DHT22;37554;50.362;7.568;2022-07-03T00:17:23;24.20;49.80
51476;DHT22;37554;50.362;7.568;2022-07-03T00:19:49;24.20;49.90
51476;DHT22;37554;50.362;7.568;2022-07-03T00:22:15;24.20;50.00
51476;DHT22;37554;50.362;7.568;2022-07-03T00:24:44;24.20;50.60
51476;DHT22;37554;50.362;7.568;2022-07-03T00:27:14;24.20;50.10
51476;DHT22;37554;50.362;7.568;2022-07-03T00:29:42;24.20;50.10
51476;DHT22;37554;50.362;7.568;2022-07-03T00:32:13;24.10;50.10
51476;DHT22;37554;50.362;7.568;2022-07-03T00:34:40;24.10;50.20
51476;DHT22;37554;50.362;7.568;2022-07-03T00:37:07;24.10;50.20
51476;DHT22;37554;50.362;7.568;2022-07-03T00:39:37;24.10;50.30
51476;DHT22;37554;50.362;7.568;2022-07-03T00:42:05;24.10;50.40
51476;DHT22;37554;50.362;7.568;2022-07-03T00:44:56;24.00;50.40
51476;DHT22;37554;50.362;7.568;2022-07-03T00:47:24;24.00;50.50
51476;DHT22;37554;50.362;7.568;2022-07-03T00:49:57;24.00;50.50
51476;DHT22;37554;50.362;7.568;2022-07-03T00:52:23;24.00;50.60
51476;DHT22;37554;50.362;7.568;2022-07-03T00:54:58;24.00;50.60
51476;DHT22;37554;50.362;7.568;2022-07-03T00:57:26;24.00;50.80
51476;DHT22;37554;50.362;7.568;2022-07-03T00:59:52;23.90;50.70
51476;DHT22;37554;50.362;7.568;2022-07-03T01:02:53;23.90;50.70
51476;DHT22;37554;50.362;7.568;2022-07-03T01:05:36;23.90;51.10
51476;DHT22;37554;50.362;7.568;2022-07-03T01:08:31;23.90;50.80
51476;DHT22;37554;50.362;7.568;2022-07-03T01:19:10;23.80;51.20
51476;DHT22;37554;50.362;7.568;2022-07-03T01:21:54;23.80;51.30
51476;DHT22;37554;50.362;7.568;2022-07-03T01:24:43;23.80;51.20
51476;DHT22;37554;50.362;7.568;2022-07-03T01:27:27;23.80;51.40
51476;DHT22;37554;50.362;7.568;2022-07-03T01:30:06;23.80;51.10
51476;DHT22;37554;50.362;7.568;2022-07-03T01:32:38;23.70;51.30
51476;DHT22;37554;50.362;7.568;2022-07-03T01:35:08;23.70;51.30
51476;DHT22;37554;50.362;7.568;2022-07-03T01:37:34;23.70;51.40
51476;DHT22;37554;50.362;7.568;2022-07-03T01:40:03;23.70;51.40
51476;DHT22;37554;50.362;7.568;2022-07-03T01:42:29;23.70;51.40
51476;DHT22;37554;50.362;7.568;2022-07-03T01:44:58;23.60;51.50
51476;DHT22;37554;50.362;7.568;2022-07-03T01:47:25;23.60;51.60
51476;DHT22;37554;50.362;7.568;2022-07-03T01:49:52;23.60;51.60
51476;DHT22;37554;50.362;7.568;2022-07-03T01:52:20;23.60;51.60
51476;DHT22;37554;50.362;7.568;2022-07-03T01:54:46;23.50;51.60
51476;DHT22;37554;50.362;7.568;2022-07-03T01:57:12;23.50;51.70
51476;DHT22;37554;50.362;7.568;2022-07-03T01:59:38;23.50;52.40
51476;DHT22;37554;50.362;7.568;2022-07-03T02:02:09;23.50;51.70
51476;DHT22;37554;50.362;7.568;2022-07-03T02:04:48;23.50;51.70
51476;DHT22;37554;50.362;7.568;2022-07-03T02:07:18;23.50;51.80
51476;DHT22;37554;50.362;7.568;2022-07-03T02:10:18;23.40;51.70
51476;DHT22;37554;50.362;7.568;2022-07-03T02:12:52;23.40;52.00
51476;DHT22;37554;50.362;7.568;2022-07-03T02:15:29;23.40;51.70
51476;DHT22;37554;50.362;7.568;2022-07-03T02:17:57;23.40;52.10
51476;DHT22;37554;50.362;7.568;2022-07-03T02:20:24;23.40;51.70
51476;DHT22;37554;50.362;7.568;2022-07-03T02:22:59;23.30;51.70
51476;DHT22;37554;50.362;7.568;2022-07-03T02:25:36;23.30;51.80
51476;DHT22;37554;50.362;7.568;2022-07-03T02:30:50;23.30;52.00
51476;DHT22;37554;50.362;7.568;2022-07-03T02:33:20;23.30;51.90
51476;DHT22;37554;50.362;7.568;2022-07-03T02:35:47;23.30;51.90
51476;DHT22;37554;50.362;7.568;2022-07-03T02:38:19;23.20;51.90
51476;DHT22;37554;50.362;7.568;2022-07-03T02:41:37;23.20;52.10
51476;DHT22;37554;50.362;7.568;2022-07-03T02:43:58;23.20;52.20
51476;DHT22;37554;50.362;7.568;2022-07-03T02:46:43;23.20;52.30
51476;DHT22;37554;50.362;7.568;2022-07-03T02:50:28;23.20;52.20
51476;DHT22;37554;50.362;7.568;2022-07-03T03:01:07;23.10;52.50
51476;DHT22;37554;50.362;7.568;2022-07-03T03:03:33;23.10;52.80
51476;DHT22;37554;50.362;7.568;2022-07-03T03:06:04;23.00;52.60
51476;DHT22;37554;50.362;7.568;2022-07-03T03:08:41;23.00;52.80
51476;DHT22;37554;50.362;7.568;2022-07-03T03:11:09;23.00;52.90
51476;DHT22;37554;50.362;7.568;2022-07-03T03:13:39;23.00;52.90
51476;DHT22;37554;50.362;7.568;2022-07-03T03:16:10;22.90;52.90
51476;DHT22;37554;50.362;7.568;2022-07-03T03:18:38;22.90;53.00
51476;DHT22;37554;50.362;7.568;2022-07-03T03:21:06;22.90;53.00
51476;DHT22;37554;50.362;7.568;2022-07-03T03:23:45;22.90;53.00
51476;DHT22;37554;50.362;7.568;2022-07-03T03:26:17;22.90;53.20
51476;DHT22;37554;50.362;7.568;2022-07-03T03:28:44;22.90;53.00
51476;DHT22;37554;50.362;7.568;2022-07-03T03:31:09;22.90;53.00
51476;DHT22;37554;50.362;7.568;2022-07-03T03:33:39;22.80;53.00
51476;DHT22;37554;50.362;7.568;2022-07-03T03:36:06;22.80;53.10
51476;DHT22;37554;50.362;7.568;2022-07-03T03:38:32;22.80;53.00
51476;DHT22;37554;50.362;7.568;2022-07-03T03:40:58;22.80;53.00
51476;DHT22;37554;50.362;7.568;2022-07-03T03:43:24;22.80;53.00
51476;DHT22;37554;50.362;7.568;2022-07-03T03:45:50;22.80;53.00
51476;DHT22;37554;50.362;7.568;2022-07-03T03:48:15;22.80;53.10
51476;DHT22;37554;50.362;7.568;2022-07-03T03:50:41;22.80;53.10
51476;DHT22;37554;50.362;7.568;2022-07-03T03:53:09;22.80;53.20
51476;DHT22;37554;50.362;7.568;2022-07-03T03:55:35;22.80;53.20
51476;DHT22;37554;50.362;7.568;2022-07-03T03:58:01;22.80;53.30
51476;DHT22;37554;50.362;7.568;2022-07-03T04:00:27;22.80;53.30
51476;DHT22;37554;50.362;7.568;2022-07-03T04:02:53;22.80;53.30
51476;DHT22;37554;50.362;7.568;2022-07-03T04:05:18;22.70;53.40
51476;DHT22;37554;50.362;7.568;2022-07-03T04:07:44;22.70;53.40
51476;DHT22;37554;50.362;7.568;2022-07-03T04:10:10;22.70;53.50
51476;DHT22;37554;50.362;7.568;2022-07-03T04:12:36;22.70;53.70
51476;DHT22;37554;50.362;7.568;2022-07-03T04:15:03;22.70;53.70
51476;DHT22;37554;50.362;7.568;2022-07-03T04:17:29;22.60;53.70
51476;DHT22;37554;50.362;7.568;2022-07-03T04:19:55;22.60;53.70
51476;DHT22;37554;50.362;7.568;2022-07-03T04:22:20;22.60;53.80
51476;DHT22;37554;50.362;7.568;2022-07-03T04:24:46;22.60;53.80
51476;DHT22;37554;50.362;7.568;2022-07-03T04:27:12;22.60;53.70
51476;DHT22;37554;50.362;7.568;2022-07-03T04:29:37;22.60;53.70
51476;DHT22;37554;50.362;7.568;2022-07-03T04:32:03;22.60;53.70
51476;DHT22;37554;50.362;7.568;2022-07-03T04:34:29;22.60;53.70
51476;DHT22;37554;50.362;7.568;2022-07-03T04:36:55;22.60;53.70
51476;DHT22;37554;50.362;7.568;2022-07-03T04:39:20;22.60;53.70
51476;DHT22;37554;50.362;7.568;2022-07-03T04:41:46;22.70;53.70
51476;DHT22;37554;50.362;7.568;2022-07-03T04:44:11;22.70;53.60
51476;DHT22;37554;50.362;7.568;2022-07-03T04:46:37;22.70;53.50
51476;DHT22;37554;50.362;7.568;2022-07-03T04:49:03;22.70;53.50
51476;DHT22;37554;50.362;7.568;2022-07-03T04:51:28;22.70;53.40
51476;DHT22;37554;50.362;7.568;2022-07-03T04:53:54;22.70;53.40
51476;DHT22;37554;50.362;7.568;2022-07-03T04:56:19;22.70;53.40
51476;DHT22;37554;50.362;7.568;2022-07-03T04:58:45;22.70;53.40
51476;DHT22;37554;50.362;7.568;2022-07-03T05:01:11;22.70;53.40
51476;DHT22;37554;50.362;7.568;2022-07-03T05:03:36;22.70;53.50
51476;DHT22;37554;50.362;7.568;2022-07-03T05:06:02;22.70;53.50
51476;DHT22;37554;50.362;7.568;2022-07-03T05:08:28;22.70;53.50
51476;DHT22;37554;50.362;7.568;2022-07-03T05:10:53;22.80;53.40
51476;DHT22;37554;50.362;7.568;2022-07-03T05:13:19;22.80;53.40
51476;DHT22;37554;50.362;7.568;2022-07-03T05:15:45;22.80;53.40
51476;DHT22;37554;50.362;7.568;2022-07-03T05:18:10;22.70;53.40
51476;DHT22;37554;50.362;7.568;2022-07-03T05:20:36;22.70;53.40
51476;DHT22;37554;50.362;7.568;2022-07-03T05:23:02;22.80;53.40
51476;DHT22;37554;50.362;7.568;2022-07-03T05:25:29;22.80;53.40
51476;DHT22;37554;50.362;7.568;2022-07-03T05:27:56;22.80;53.40
51476;DHT22;37554;50.362;7.568;2022-07-03T05:30:23;22.80;53.40
51476;DHT22;37554;50.362;7.568;2022-07-03T05:32:50;22.90;53.40
51476;DHT22;37554;50.362;7.568;2022-07-03T05:35:15;22.90;53.30
51476;DHT22;37554;50.362;7.568;2022-07-03T05:37:41;22.90;53.30
51476;DHT22;37554;50.362;7.568;2022-07-03T05:40:08;22.90;53.40
51476;DHT22;37554;50.362;7.568;2022-07-03T05:42:34;22.90;53.40
51476;DHT22;37554;50.362;7.568;2022-07-03T05:45:00;22.90;53.50
51476;DHT22;37554;50.362;7.568;2022-07-03T05:47:25;22.90;53.50
51476;DHT22;37554;50.362;7.568;2022-07-03T05:49:51;23.00;53.70
51476;DHT22;37554;50.362;7.568;2022-07-03T05:52:17;23.00;53.70
51476;DHT22;37554;50.362;7.568;2022-07-03T05:54:43;23.00;53.70
51476;DHT22;37554;50.362;7.568;2022-07-03T05:57:08;23.00;53.70
51476;DHT22;37554;50.362;7.568;2022-07-03T05:59:34;23.10;53.70
51476;DHT22;37554;50.362;7.568;2022-07-03T06:02:00;23.20;53.70
51476;DHT22;37554;50.362;7.568;2022-07-03T06:04:26;23.20;54.30
51476;DHT22;37554;50.362;7.568;2022-07-03T06:06:51;23.20;53.60
51476;DHT22;37554;50.362;7.568;2022-07-03T06:09:17;23.30;53.50
51476;DHT22;37554;50.362;7.568;2022-07-03T06:11:43;23.40;53.40
51476;DHT22;37554;50.362;7.568;2022-07-03T06:14:08;23.40;53.40
51476;DHT22;37554;50.362;7.568;2022-07-03T06:16:34;23.50;53.40
51476;DHT22;37554;50.362;7.568;2022-07-03T06:19:00;23.50;53.30
51476;DHT22;37554;50.362;7.568;2022-07-03T06:21:25;23.60;53.20
51476;DHT22;37554;50.362;7.568;2022-07-03T06:23:51;23.70;53.20
51476;DHT22;37554;50.362;7.568;2022-07-03T06:26:16;23.70;53.10
51476;DHT22;37554;50.362;7.568;2022-07-03T06:28:42;23.80;53.10
51476;DHT22;37554;50.362;7.568;2022-07-03T06:31:08;23.90;53.00
51476;DHT22;37554;50.362;7.568;2022-07-03T06:33:34;23.90;52.90
51476;DHT22;37554;50.362;7.568;2022-07-03T06:36:00;24.00;52.90
51476;DHT22;37554;50.362;7.568;2022-07-03T06:38:25;24.10;52.80
51476;DHT22;37554;50.362;7.568;2022-07-03T06:40:51;24.20;52.80
51476;DHT22;37554;50.362;7.568;2022-07-03T06:43:17;24.20;52.70
51476;DHT22;37554;50.362;7.568;2022-07-03T06:45:43;24.30;52.60
51476;DHT22;37554;50.362;7.568;2022-07-03T06:48:08;24.40;52.60
51476;DHT22;37554;50.362;7.568;2022-07-03T06:50:34;24.50;52.50
51476;DHT22;37554;50.362;7.568;2022-07-03T06:53:00;24.60;52.40
51476;DHT22;37554;50.362;7.568;2022-07-03T06:55:26;24.70;52.30
51476;DHT22;37554;50.362;7.568;2022-07-03T06:57:52;24.80;52.10
51476;DHT22;37554;50.362;7.568;2022-07-03T07:00:17;24.90;52.10
51476;DHT22;37554;50.362;7.568;2022-07-03T07:02:43;25.10;51.80
51476;DHT22;37554;50.362;7.568;2022-07-03T07:05:09;25.10;51.60
51476;DHT22;37554;50.362;7.568;2022-07-03T07:07:34;25.30;51.50
51476;DHT22;37554;50.362;7.568;2022-07-03T07:10:00;25.10;51.50
51476;DHT22;37554;50.362;7.568;2022-07-03T07:12:26;25.10;51.80
51476;DHT22;37554;50.362;7.568;2022-07-03T07:14:52;25.00;52.20
51476;DHT22;37554;50.362;7.568;2022-07-03T07:17:17;24.90;52.60
51476;DHT22;37554;50.362;7.568;2022-07-03T07:19:43;24.90;52.40
51476;DHT22;37554;50.362;7.568;2022-07-03T07:22:08;24.90;52.40
51476;DHT22;37554;50.362;7.568;2022-07-03T07:24:34;24.90;52.40
51476;DHT22;37554;50.362;7.568;2022-07-03T07:27:00;24.90;52.30
51476;DHT22;37554;50.362;7.568;2022-07-03T07:29:25;24.90;52.10
51476;DHT22;37554;50.362;7.568;2022-07-03T07:31:51;24.80;52.10
51476;DHT22;37554;50.362;7.568;2022-07-03T07:34:17;24.80;52.20
51476;DHT22;37554;50.362;7.568;2022-07-03T07:36:42;24.90;52.40
51476;DHT22;37554;50.362;7.568;2022-07-03T07:39:08;25.00;52.60
51476;DHT22;37554;50.362;7.568;2022-07-03T07:41:35;25.00;52.50
51476;DHT22;37554;50.362;7.568;2022-07-03T07:44:01;25.10;52.20
51476;DHT22;37554;50.362;7.568;2022-07-03T07:46:26;25.20;51.90
51476;DHT22;37554;50.362;7.568;2022-07-03T07:48:52;25.10;51.90
51476;DHT22;37554;50.362;7.568;2022-07-03T07:51:18;25.20;51.80
51476;DHT22;37554;50.362;7.568;2022-07-03T07:53:44;25.30;51.90
51476;DHT22;37554;50.362;7.568;2022-07-03T07:56:09;25.30;51.60
51476;DHT22;37554;50.362;7.568;2022-07-03T07:58:35;25.30;51.50
51476;DHT22;37554;50.362;7.568;2022-07-03T08:01:01;25.50;51.40
51476;DHT22;37554;50.362;7.568;2022-07-03T08:03:45;25.50;51.30
51476;DHT22;37554;50.362;7.568;2022-07-03T08:06:29;25.60;51.10
51476;DHT22;37554;50.362;7.568;2022-07-03T08:08:55;25.60;51.20
51476;DHT22;37554;50.362;7.568;2022-07-03T08:11:20;25.90;51.40
51476;DHT22;37554;50.362;7.568;2022-07-03T08:13:46;26.00;51.20
51476;DHT22;37554;50.362;7.568;2022-07-03T08:16:12;26.00;50.90
51476;DHT22;37554;50.362;7.568;2022-07-03T08:18:38;26.20;50.40
51476;DHT22;37554;50.362;7.568;2022-07-03T08:21:04;26.30;50.00
51476;DHT22;37554;50.362;7.568;2022-07-03T08:23:29;26.40;49.90
51476;DHT22;37554;50.362;7.568;2022-07-03T08:25:55;26.50;49.60
51476;DHT22;37554;50.362;7.568;2022-07-03T08:28:21;26.50;49.40
51476;DHT22;37554;50.362;7.568;2022-07-03T08:30:46;26.50;49.40
51476;DHT22;37554;50.362;7.568;2022-07-03T08:33:12;26.70;49.30
51476;DHT22;37554;50.362;7.568;2022-07-03T08:35:38;26.90;49.20
51476;DHT22;37554;50.362;7.568;2022-07-03T08:38:03;26.90;48.90
51476;DHT22;37554;50.362;7.568;2022-07-03T08:40:29;27.10;49.00
51476;DHT22;37554;50.362;7.568;2022-07-03T08:42:58;27.20;48.50
51476;DHT22;37554;50.362;7.568;2022-07-03T08:45:26;27.30;48.30
51476;DHT22;37554;50.362;7.568;2022-07-03T08:47:57;27.50;47.90
51476;DHT22;37554;50.362;7.568;2022-07-03T08:50:23;27.60;46.60
51476;DHT22;37554;50.362;7.568;2022-07-03T08:52:49;27.70;46.70
51476;DHT22;37554;50.362;7.568;2022-07-03T08:55:17;27.70;46.60
51476;DHT22;37554;50.362;7.568;2022-07-03T08:57:44;27.90;46.40
51476;DHT22;37554;50.362;7.568;2022-07-03T09:00:18;28.00;46.50
51476;DHT22;37554;50.362;7.568;2022-07-03T09:02:45;28.20;46.50
51476;DHT22;37554;50.362;7.568;2022-07-03T09:05:12;28.30;46.30
51476;DHT22;37554;50.362;7.568;2022-07-03T09:07:39;28.40;45.90
51476;DHT22;37554;50.362;7.568;2022-07-03T09:10:11;28.50;45.80
51476;DHT22;37554;50.362;7.568;2022-07-03T09:12:37;28.50;45.20
51476;DHT22;37554;50.362;7.568;2022-07-03T09:15:05;28.60;45.40
51476;DHT22;37554;50.362;7.568;2022-07-03T09:17:31;28.70;45.10
51476;DHT22;37554;50.362;7.568;2022-07-03T09:20:02;28.90;45.50
51476;DHT22;37554;50.362;7.568;2022-07-03T09:22:34;28.90;44.20
51476;DHT22;37554;50.362;7.568;2022-07-03T09:25:11;29.00;44.20
51476;DHT22;37554;50.362;7.568;2022-07-03T09:27:39;29.20;43.90
51476;DHT22;37554;50.362;7.568;2022-07-03T09:30:13;29.30;44.20
51476;DHT22;37554;50.362;7.568;2022-07-03T09:37:41;29.60;43.50
51476;DHT22;37554;50.362;7.568;2022-07-03T09:40:12;29.80;43.50
51476;DHT22;37554;50.362;7.568;2022-07-03T09:42:38;29.90;42.90
51476;DHT22;37554;50.362;7.568;2022-07-03T09:45:04;30.00;42.80
51476;DHT22;37554;50.362;7.568;2022-07-03T09:47:29;30.10;42.10
51476;DHT22;37554;50.362;7.568;2022-07-03T09:52:36;30.10;42.30
51476;DHT22;37554;50.362;7.568;2022-07-03T10:02:35;30.90;41.50
51476;DHT22;37554;50.362;7.568;2022-07-03T10:05:13;30.90;40.50
51476;DHT22;37554;50.362;7.568;2022-07-03T10:07:52;30.60;39.90
51476;DHT22;37554;50.362;7.568;2022-07-03T10:10:20;30.30;41.00
51476;DHT22;37554;50.362;7.568;2022-07-03T10:12:51;29.90;41.10
51476;DHT22;37554;50.362;7.568;2022-07-03T10:15:19;29.50;40.90
51476;DHT22;37554;50.362;7.568;2022-07-03T10:17:53;29.30;41.20
51476;DHT22;37554;50.362;7.568;2022-07-03T10:20:29;29.10;41.50
51476;DHT22;37554;50.362;7.568;2022-07-03T10:22:56;28.90;41.40
51476;DHT22;37554;50.362;7.568;2022-07-03T10:25:22;28.80;41.80
51476;DHT22;37554;50.362;7.568;2022-07-03T10:27:48;28.70;42.00
51476;DHT22;37554;50.362;7.568;2022-07-03T10:30:19;28.60;42.10
51476;DHT22;37554;50.362;7.568;2022-07-03T10:32:55;28.60;41.90
51476;DHT22;37554;50.362;7.568;2022-07-03T10:35:42;29.10;41.80
51476;DHT22;37554;50.362;7.568;2022-07-03T10:41:16;29.10;41.20
51476;DHT22;37554;50.362;7.568;2022-07-03T10:44:03;29.30;41.60
51476;DHT22;37554;50.362;7.568;2022-07-03T10:46:46;29.80;41.10
51476;DHT22;37554;50.362;7.568;2022-07-03T10:49:13;30.10;40.40
51476;DHT22;37554;50.362;7.568;2022-07-03T11:08:02;30.20;39.80
51476;DHT22;37554;50.362;7.568;2022-07-03T11:25:56;30.20;38.80
51476;DHT22;37554;50.362;7.568;2022-07-03T11:31:26;29.80;38.70
51476;DHT22;37554;50.362;7.568;2022-07-03T11:41:22;29.20;39.40
51476;DHT22;37554;50.362;7.568;2022-07-03T11:43:52;29.20;40.10
51476;DHT22;37554;50.362;7.568;2022-07-03T11:46:20;29.10;40.10
51476;DHT22;37554;50.362;7.568;2022-07-03T11:48:46;29.40;40.10
51476;DHT22;37554;50.362;7.568;2022-07-03T11:51:13;29.90;39.90
51476;DHT22;37554;50.362;7.568;2022-07-03T11:53:39;30.20;40.30
51476;DHT22;37554;50.362;7.568;2022-07-03T11:56:10;30.30;39.60
51476;DHT22;37554;50.362;7.568;2022-07-03T11:58:45;30.40;39.30
51476;DHT22;37554;50.362;7.568;2022-07-03T12:01:28;30.20;39.40
51476;DHT22;37554;50.362;7.568;2022-07-03T12:04:03;29.90;39.80
51476;DHT22;37554;50.362;7.568;2022-07-03T12:06:36;29.90;39.40
51476;DHT22;37554;50.362;7.568;2022-07-03T12:09:11;29.80;39.70
51476;DHT22;37554;50.362;7.568;2022-07-03T12:11:37;29.90;40.00
51476;DHT22;37554;50.362;7.568;2022-07-03T12:14:03;30.50;40.60
51476;DHT22;37554;50.362;7.568;2022-07-03T12:16:32;31.30;40.70
51476;DHT22;37554;50.362;7.568;2022-07-03T12:19:06;31.60;39.00
51476;DHT22;37554;50.362;7.568;2022-07-03T12:21:37;31.90;38.20
51476;DHT22;37554;50.362;7.568;2022-07-03T12:24:10;32.10;37.60
51476;DHT22;37554;50.362;7.568;2022-07-03T12:26:36;32.30;35.90
51476;DHT22;37554;50.362;7.568;2022-07-03T12:29:05;32.30;35.50
51476;DHT22;37554;50.362;7.568;2022-07-03T12:31:32;32.30;34.80
51476;DHT22;37554;50.362;7.568;2022-07-03T12:33:59;32.60;34.70
51476;DHT22;37554;50.362;7.568;2022-07-03T12:36:25;32.70;34.40
51476;DHT22;37554;50.362;7.568;2022-07-03T12:38:55;32.60;33.20
51476;DHT22;37554;50.362;7.568;2022-07-03T12:41:22;32.50;32.50
51476;DHT22;37554;50.362;7.568;2022-07-03T12:43:49;32.40;33.20
51476;DHT22;37554;50.362;7.568;2022-07-03T12:46:36;32.30;32.70
51476;DHT22;37554;50.362;7.568;2022-07-03T12:49:10;32.40;32.10
51476;DHT22;37554;50.362;7.568;2022-07-03T12:51:45;32.30;32.10
51476;DHT22;37554;50.362;7.568;2022-07-03T12:54:53;32.30;31.50
51476;DHT22;37554;50.362;7.568;2022-07-03T12:57:07;32.30;31.70
51476;DHT22;37554;50.362;7.568;2022-07-03T13:00:11;32.50;31.80
51476;DHT22;37554;50.362;7.568;2022-07-03T13:02:39;32.60;31.10
51476;DHT22;37554;50.362;7.568;2022-07-03T13:05:22;32.50;32.00
51476;DHT22;37554;50.362;7.568;2022-07-03T13:07:53;32.40;31.50
51476;DHT22;37554;50.362;7.568;2022-07-03T13:10:20;32.30;32.10
51476;DHT22;37554;50.362;7.568;2022-07-03T13:15:14;32.60;32.30
51476;DHT22;37554;50.362;7.568;2022-07-03T13:20:23;32.10;31.90
51476;DHT22;37554;50.362;7.568;2022-07-03T13:22:49;31.90;32.90
51476;DHT22;37554;50.362;7.568;2022-07-03T13:25:16;32.20;32.90
51476;DHT22;37554;50.362;7.568;2022-07-03T13:27:42;32.40;32.80
51476;DHT22;37554;50.362;7.568;2022-07-03T13:30:09;32.60;33.40
51476;DHT22;37554;50.362;7.568;2022-07-03T13:32:35;32.70;33.10
51476;DHT22;37554;50.362;7.568;2022-07-03T13:35:00;32.90;32.70
51476;DHT22;37554;50.362;7.568;2022-07-03T13:37:26;32.50;32.40
51476;DHT22;37554;50.362;7.568;2022-07-03T13:39:52;32.20;32.50
51476;DHT22;37554;50.362;7.568;2022-07-03T13:42:17;32.30;32.70
51476;DHT22;37554;50.362;7.568;2022-07-03T13:44:43;32.40;32.60
51476;DHT22;37554;50.362;7.568;2022-07-03T13:47:09;32.30;32.30
51476;DHT22;37554;50.362;7.568;2022-07-03T13:49:34;32.40;32.60
51476;DHT22;37554;50.362;7.568;2022-07-03T13:52:00;32.60;32.50
51476;DHT22;37554;50.362;7.568;2022-07-03T13:54:26;32.60;32.00
51476;DHT22;37554;50.362;7.568;2022-07-03T13:56:51;32.30;32.80
51476;DHT22;37554;50.362;7.568;2022-07-03T13:59:17;32.30;32.40
51476;DHT22;37554;50.362;7.568;2022-07-03T14:01:44;32.30;32.20
51476;DHT22;37554;50.362;7.568;2022-07-03T14:04:09;32.40;32.20
51476;DHT22;37554;50.362;7.568;2022-07-03T14:06:35;32.40;32.30
51476;DHT22;37554;50.362;7.568;2022-07-03T14:09:02;32.30;32.30
51476;DHT22;37554;50.362;7.568;2022-07-03T14:11:28;32.20;32.20
51476;DHT22;37554;50.362;7.568;2022-07-03T14:13:53;32.20;32.20
51476;DHT22;37554;50.362;7.568;2022-07-03T14:16:19;32.10;32.20
51476;DHT22;37554;50.362;7.568;2022-07-03T14:18:44;31.80;32.30
51476;DHT22;37554;50.362;7.568;2022-07-03T14:21:11;31.50;32.70
51476;DHT22;37554;50.362;7.568;2022-07-03T14:23:36;31.60;33.00
51476;DHT22;37554;50.362;7.568;2022-07-03T14:26:02;31.60;32.90
51476;DHT22;37554;50.362;7.568;2022-07-03T14:28:28;31.60;32.80
51476;DHT22;37554;50.362;7.568;2022-07-03T14:31:12;31.80;32.80
51476;DHT22;37554;50.362;7.568;2022-07-03T14:33:53;31.90;32.60
51476;DHT22;37554;50.362;7.568;2022-07-03T14:36:19;32.00;32.20
51476;DHT22;37554;50.362;7.568;2022-07-03T14:38:45;32.10;32.30
51476;DHT22;37554;50.362;7.568;2022-07-03T14:41:11;32.00;32.20
51476;DHT22;37554;50.362;7.568;2022-07-03T14:43:37;32.00;32.20
51476;DHT22;37554;50.362;7.568;2022-07-03T14:46:03;32.00;32.30
51476;DHT22;37554;50.362;7.568;2022-07-03T14:48:29;32.00;32.30
51476;DHT22;37554;50.362;7.568;2022-07-03T14:50:54;32.10;32.40
51476;DHT22;37554;50.362;7.568;2022-07-03T14:53:21;32.20;32.80
51476;DHT22;37554;50.362;7.568;2022-07-03T14:55:48;32.30;32.40
51476;DHT22;37554;50.362;7.568;2022-07-03T14:58:23;32.30;32.20
51476;DHT22;37554;50.362;7.568;2022-07-03T15:00:56;32.30;31.80
51476;DHT22;37554;50.362;7.568;2022-07-03T15:03:33;32.10;31.90
51476;DHT22;37554;50.362;7.568;2022-07-03T15:06:01;32.10;33.80
51476;DHT22;37554;50.362;7.568;2022-07-03T15:11:02;31.70;36.60
51476;DHT22;37554;50.362;7.568;2022-07-03T15:13:29;31.50;37.20
51476;DHT22;37554;50.362;7.568;2022-07-03T15:15:56;31.50;37.50
51476;DHT22;37554;50.362;7.568;2022-07-03T15:18:22;31.50;38.00
51476;DHT22;37554;50.362;7.568;2022-07-03T15:20:50;31.50;38.30
51476;DHT22;37554;50.362;7.568;2022-07-03T15:23:18;31.40;38.20
51476;DHT22;37554;50.362;7.568;2022-07-03T15:25:45;31.40;38.30
51476;DHT22;37554;50.362;7.568;2022-07-03T15:28:10;31.40;38.60
51476;DHT22;37554;50.362;7.568;2022-07-03T15:30:36;31.40;38.70
51476;DHT22;37554;50.362;7.568;2022-07-03T15:33:03;31.40;38.50
51476;DHT22;37554;50.362;7.568;2022-07-03T15:35:31;31.30;38.50
51476;DHT22;37554;50.362;7.568;2022-07-03T15:38:12;31.20;38.60
51476;DHT22;37554;50.362;7.568;2022-07-03T15:51:52;30.90;39.50
51476;DHT22;37554;50.362;7.568;2022-07-03T15:54:31;30.80;39.80
51476;DHT22;37554;50.362;7.568;2022-07-03T15:57:03;30.80;40.00
51476;DHT22;37554;50.362;7.568;2022-07-03T15:59:35;30.80;40.10
51476;DHT22;37554;50.362;7.568;2022-07-03T16:02:02;30.80;40.00
51476;DHT22;37554;50.362;7.568;2022-07-03T16:05:06;30.70;40.10
51476;DHT22;37554;50.362;7.568;2022-07-03T16:07:37;30.60;40.70
51476;DHT22;37554;50.362;7.568;2022-07-03T16:10:05;30.60;40.60
51476;DHT22;37554;50.362;7.568;2022-07-03T16:12:31;30.50;40.70
51476;DHT22;37554;50.362;7.568;2022-07-03T16:14:58;30.40;40.90
51476;DHT22;37554;50.362;7.568;2022-07-03T16:17:24;30.30;41.10
51476;DHT22;37554;50.362;7.568;2022-07-03T16:19:51;30.30;41.20
51476;DHT22;37554;50.362;7.568;2022-07-03T16:22:17;30.30;41.30
51476;DHT22;37554;50.362;7.568;2022-07-03T16:24:45;30.40;41.00
51476;DHT22;37554;50.362;7.568;2022-07-03T16:27:13;30.40;41.00
51476;DHT22;37554;50.362;7.568;2022-07-03T16:29:39;30.40;41.00
51476;DHT22;37554;50.362;7.568;2022-07-03T16:32:12;30.30;41.10
51476;DHT22;37554;50.362;7.568;2022-07-03T16:37:52;30.20;41.00
51476;DHT22;37554;50.362;7.568;2022-07-03T16:40:21;30.30;41.20
51476;DHT22;37554;50.362;7.568;2022-07-03T16:42:48;30.30;41.10
51476;DHT22;37554;50.362;7.568;2022-07-03T16:45:15;30.20;41.10
51476;DHT22;37554;50.362;7.568;2022-07-03T16:47:47;30.10;41.10
51476;DHT22;37554;50.362;7.568;2022-07-03T16:50:19;30.10;41.20
51476;DHT22;37554;50.362;7.568;2022-07-03T16:52:50;30.10;41.00
51476;DHT22;37554;50.362;7.568;2022-07-03T16:55:17;30.00;41.10
51476;DHT22;37554;50.362;7.568;2022-07-03T16:57:47;29.90;41.10
51476;DHT22;37554;50.362;7.568;2022-07-03T17:00:16;29.80;41.20
51476;DHT22;37554;50.362;7.568;2022-07-03T17:02:43;29.90;41.30
51476;DHT22;37554;50.362;7.568;2022-07-03T17:05:12;29.80;41.20
51476;DHT22;37554;50.362;7.568;2022-07-03T17:07:43;29.80;41.30
51476;DHT22;37554;50.362;7.568;2022-07-03T17:10:10;29.80;41.50
51476;DHT22;37554;50.362;7.568;2022-07-03T17:12:37;29.70;41.60
51476;DHT22;37554;50.362;7.568;2022-07-03T17:15:04;29.70;41.70
51476;DHT22;37554;50.362;7.568;2022-07-03T17:17:30;29.60;41.70
51476;DHT22;37554;50.362;7.568;2022-07-03T17:20:02;29.60;42.00
51476;DHT22;37554;50.362;7.568;2022-07-03T17:22:29;29.50;42.00